Rose Des Vents — FAE5510 — position and weather

sailwx.info

Track history (hours):
 
Tides and Currents Weather Stations Pressure Air Temp Water Temp Dewpoint Dewpoint Depression Visibility Wind Speed Wind Dir Waves Ship Positions

Rose Des Vents

Last reported at 2018-Apr-23 13:36 UTC. Time now 2018-Apr-25 08:39 UTC.
Position N 14°22' W 060°56'.

Length 12 m.

Type: Sailing vessel. MMSI: 227487960.

Date/timePositionNaut miles runAvg speedWind from/ knotsBaromVisibWave heightAir tempDewpointWater temp
2018-Apr-23 13:36N 14°22' W 060°56'1 6.2
2018-Apr-23 13:30N 14°23' W 060°55'4 5.7
2018-Apr-23 12:52N 14°26' W 060°54'1 0.8
2018-Apr-23 12:04N 14°26' W 060°53'0 0.1
2018-Apr-23 11:58N 14°26' W 060°53'0 0.0
2018-Apr-23 10:40N 14°26' W 060°53'0 0.0
2018-Apr-23 10:25N 14°26' W 060°53'0 0.0
2018-Apr-23 09:52N 14°26' W 060°53'0 0.0
2018-Apr-23 09:28N 14°26' W 060°53'0 0.0
2018-Apr-23 08:58N 14°26' W 060°53'0 0.0
2018-Apr-23 08:25N 14°26' W 060°53'0 0.0
2018-Apr-23 07:58N 14°26' W 060°53'0 0.0
2018-Apr-23 07:19N 14°26' W 060°53'0 0.0
2018-Apr-23 06:58N 14°26' W 060°53'0 0.0
2018-Apr-23 06:28N 14°26' W 060°53'0 0.0
2018-Apr-23 05:31N 14°26' W 060°53'0 0.1
2018-Apr-23 05:25N 14°26' W 060°53'0 0.0
2018-Apr-23 04:58N 14°26' W 060°53'0 0.0
2018-Apr-23 04:25N 14°26' W 060°53'0 0.0
2018-Apr-23 03:49N 14°26' W 060°53'0 0.0
2018-Apr-23 03:16N 14°26' W 060°53'0 0.0
2018-Apr-23 02:55N 14°26' W 060°53'0 0.0
2018-Apr-23 02:25N 14°26' W 060°53'0 0.0
2018-Apr-23 01:55N 14°26' W 060°53'0 0.0
2018-Apr-23 01:28N 14°26' W 060°53'0 0.0
2018-Apr-23 00:58N 14°26' W 060°53'0 0.0
2018-Apr-23 00:25N 14°26' W 060°53'0 0.0
2018-Apr-22 23:52N 14°26' W 060°53'0 0.0
2018-Apr-22 23:28N 14°26' W 060°53'0 0.0
2018-Apr-22 22:55N 14°26' W 060°53'0 0.0
2018-Apr-22 22:28N 14°26' W 060°53'0 0.0
2018-Apr-22 21:58N 14°26' W 060°53'0 0.0
2018-Apr-22 21:25N 14°26' W 060°53'0 0.0
2018-Apr-22 20:49N 14°26' W 060°53'0 0.0
2018-Apr-22 20:28N 14°26' W 060°53'0 0.0
2018-Apr-22 19:58N 14°26' W 060°53'0 0.0
2018-Apr-22 19:29N 14°26' W 060°53'0 0.0
2018-Apr-22 18:59N 14°26' W 060°53'0 0.0
2018-Apr-22 18:29N 14°26' W 060°53'0 0.0
2018-Apr-22 17:56N 14°26' W 060°53'0 0.0
2018-Apr-22 17:29N 14°26' W 060°53'0 0.0
2018-Apr-22 16:47N 14°26' W 060°53'0 0.0
2018-Apr-22 16:26N 14°26' W 060°53'0 0.0
2018-Apr-22 15:59N 14°26' W 060°53'0 0.0
2018-Apr-22 15:30N 14°26' W 060°53'2 3.2
2018-Apr-22 14:54N 14°28' W 060°53'0 0.0
2018-Apr-22 14:27N 14°28' W 060°53'0 0.0
2018-Apr-22 14:00N 14°28' W 060°53'0 0.0
2018-Apr-22 13:30N 14°28' W 060°53'0 0.0
2018-Apr-22 13:00N 14°28' W 060°53'0 0.0
2018-Apr-22 12:27N 14°28' W 060°53'0 0.0
2018-Apr-22 11:57N 14°28' W 060°53'0 0.0
2018-Apr-22 11:19N 14°28' W 060°53'0 0.0
2018-Apr-22 11:00N 14°28' W 060°53'0 0.0
2018-Apr-22 10:25N 14°28' W 060°53'0 0.0
2018-Apr-22 10:00N 14°28' W 060°53'0 0.0
2018-Apr-22 09:30N 14°28' W 060°53'0 0.0
2018-Apr-22 09:00N 14°28' W 060°53'0 0.0
2018-Apr-22 08:27N 14°28' W 060°53'0 0.0
2018-Apr-22 08:00N 14°28' W 060°53'0 0.0
2018-Apr-22 07:27N 14°28' W 060°53'0 0.0
2018-Apr-22 07:00N 14°28' W 060°53'0 0.0
2018-Apr-22 06:30N 14°28' W 060°53'0 0.0
2018-Apr-22 06:00N 14°28' W 060°53'0 0.0
2018-Apr-22 05:30N 14°28' W 060°53'0 0.0
2018-Apr-22 05:00N 14°28' W 060°53'0 0.0
2018-Apr-22 04:30N 14°28' W 060°53'0 0.0
2018-Apr-22 04:00N 14°28' W 060°53'0 0.0
2018-Apr-22 03:30N 14°28' W 060°53'0 0.0
2018-Apr-22 03:00N 14°28' W 060°53'0 0.0
2018-Apr-22 02:30N 14°28' W 060°53'0 0.0
2018-Apr-22 02:00N 14°28' W 060°53'0 0.0
2018-Apr-22 01:30N 14°28' W 060°53'0 0.0
2018-Apr-22 01:00N 14°28' W 060°53'0 0.0
2018-Apr-22 00:30N 14°28' W 060°53'0 0.0
2018-Apr-22 00:00N 14°28' W 060°53'0 0.0
2018-Apr-21 23:29N 14°28' W 060°53'0 0.0
2018-Apr-21 22:59N 14°28' W 060°53'0 0.0
2018-Apr-21 22:29N 14°28' W 060°53'0 0.0
2018-Apr-21 21:59N 14°28' W 060°53'0 0.0
2018-Apr-21 21:29N 14°28' W 060°53'0 0.0
2018-Apr-21 20:59N 14°28' W 060°53'0 0.0
2018-Apr-21 20:29N 14°28' W 060°53'0 0.0
2018-Apr-21 19:59N 14°28' W 060°53'0 0.0
2018-Apr-21 19:29N 14°28' W 060°53'0 0.0
2018-Apr-21 18:59N 14°28' W 060°53'0 0.0
2018-Apr-21 18:29N 14°28' W 060°53'0 0.0
2018-Apr-21 17:59N 14°28' W 060°53'0 0.0
2018-Apr-21 17:29N 14°28' W 060°53'0 0.0
2018-Apr-21 16:59N 14°28' W 060°53'0 0.0
2018-Apr-21 16:29N 14°28' W 060°53'0 0.0
2018-Apr-21 15:59N 14°28' W 060°53'0 0.0
2018-Apr-21 15:29N 14°28' W 060°53'0 0.0
2018-Apr-21 14:59N 14°28' W 060°53'0 0.0
2018-Apr-21 14:29N 14°28' W 060°53'0 0.0
2018-Apr-21 13:59N 14°28' W 060°53'0 0.0
2018-Apr-21 13:29N 14°28' W 060°53'0 0.0
2018-Apr-21 12:56N 14°28' W 060°53'0 0.0
2018-Apr-21 12:29N 14°28' W 060°53'0 0.0
2018-Apr-21 11:59N 14°28' W 060°53'0 0.0
2018-Apr-21 11:29N 14°28' W 060°53'0 0.0
2018-Apr-21 10:59N 14°28' W 060°53'0 0.0
2018-Apr-21 10:29N 14°28' W 060°53'0 0.0
2018-Apr-21 09:59N 14°28' W 060°53'0 0.0
2018-Apr-21 09:29N 14°28' W 060°53'0 0.0
2018-Apr-21 08:59N 14°28' W 060°53'0 0.0
2018-Apr-21 08:29N 14°28' W 060°53'0 0.0
2018-Apr-21 07:59N 14°28' W 060°53'0 0.0
2018-Apr-21 07:29N 14°28' W 060°53'0 0.0
2018-Apr-21 06:59N 14°28' W 060°53'0 0.0
2018-Apr-21 06:29N 14°28' W 060°53'0 0.0
2018-Apr-21 05:29N 14°28' W 060°53'0 0.0
2018-Apr-21 04:59N 14°28' W 060°53'0 0.0
2018-Apr-21 04:29N 14°28' W 060°53'0 0.0
2018-Apr-21 03:59N 14°28' W 060°53'0 0.0
2018-Apr-21 03:29N 14°28' W 060°53'0 0.0
2018-Apr-21 02:59N 14°28' W 060°53'0 0.0
2018-Apr-21 02:29N 14°28' W 060°53'0 0.0
2018-Apr-21 01:59N 14°28' W 060°53'0 0.0
2018-Apr-21 01:29N 14°28' W 060°53'0 0.0
2018-Apr-21 00:59N 14°28' W 060°53'0 0.0
2018-Apr-21 00:29N 14°28' W 060°53'0 0.0
2018-Apr-20 23:59N 14°28' W 060°53'0 0.0
2018-Apr-20 23:29N 14°28' W 060°53'0 0.0
2018-Apr-20 22:59N 14°28' W 060°53'0 0.0
2018-Apr-20 22:29N 14°28' W 060°53'0 0.0
2018-Apr-20 21:59N 14°28' W 060°53'0 0.0
2018-Apr-20 21:29N 14°28' W 060°53'0 0.0
2018-Apr-20 20:59N 14°28' W 060°53'0 0.0
2018-Apr-20 20:29N 14°28' W 060°53'0 0.0
2018-Apr-20 19:59N 14°28' W 060°53'0 0.0
2018-Apr-20 19:29N 14°28' W 060°53'0 0.0
2018-Apr-20 18:59N 14°28' W 060°53'0 0.0
2018-Apr-20 18:29N 14°28' W 060°53'0 0.0
2018-Apr-20 17:59N 14°28' W 060°53'0 0.0
2018-Apr-20 17:29N 14°28' W 060°53'0 0.0
2018-Apr-20 16:59N 14°28' W 060°53'0 0.0
2018-Apr-20 16:29N 14°28' W 060°53'0 0.0
2018-Apr-20 15:59N 14°28' W 060°53'0 0.0
2018-Apr-20 15:29N 14°28' W 060°53'0 0.0
2018-Apr-20 14:59N 14°28' W 060°53'0 0.0
2018-Apr-20 14:29N 14°28' W 060°53'0 0.0
2018-Apr-20 13:59N 14°28' W 060°53'0 0.0
2018-Apr-20 13:29N 14°28' W 060°53'0 0.0
2018-Apr-20 12:59N 14°28' W 060°53'0 0.0
2018-Apr-20 12:29N 14°28' W 060°53'0 0.0
2018-Apr-20 11:59N 14°28' W 060°53'0 0.0
2018-Apr-20 11:28N 14°28' W 060°53'0 0.0
2018-Apr-20 10:55N 14°28' W 060°53'0 0.0
2018-Apr-20 10:28N 14°28' W 060°53'0 0.0
2018-Apr-20 09:58N 14°28' W 060°53'0 0.0
2018-Apr-20 09:28N 14°28' W 060°53'0 0.0
2018-Apr-20 08:58N 14°28' W 060°53'0 0.0
2018-Apr-20 08:25N 14°28' W 060°53'0 0.0
2018-Apr-20 07:58N 14°28' W 060°53'0 0.0
2018-Apr-20 07:28N 14°28' W 060°53'0 0.0
2018-Apr-20 06:58N 14°28' W 060°53'0 0.0
2018-Apr-20 06:28N 14°28' W 060°53'0 0.0
2018-Apr-20 05:28N 14°28' W 060°53'0 0.0
2018-Apr-20 04:58N 14°28' W 060°53'0 0.0
2018-Apr-20 04:28N 14°28' W 060°53'0 0.0
2018-Apr-20 03:58N 14°28' W 060°53'0 0.0
2018-Apr-20 03:28N 14°28' W 060°53'0 0.0
2018-Apr-20 02:58N 14°28' W 060°53'0 0.0
2018-Apr-20 02:28N 14°28' W 060°53'0 0.0
2018-Apr-20 01:58N 14°28' W 060°53'0 0.0
2018-Apr-20 01:28N 14°28' W 060°53'0 0.0
2018-Apr-20 00:58N 14°28' W 060°53'0 0.0
2018-Apr-20 00:28N 14°28' W 060°53'0 0.0
2018-Apr-19 23:52N 14°28' W 060°53'0 0.0
2018-Apr-19 23:10N 14°28' W 060°53'0 0.0
2018-Apr-19 22:58N 14°28' W 060°53'0 0.0
2018-Apr-19 22:28N 14°28' W 060°53'0 0.0
2018-Apr-19 21:58N 14°28' W 060°53'0 0.0
2018-Apr-19 21:28N 14°28' W 060°53'0 0.0
2018-Apr-19 20:58N 14°28' W 060°53'0 0.0
2018-Apr-19 20:28N 14°28' W 060°53'0 0.0
2018-Apr-19 19:58N 14°28' W 060°53'0 0.0
2018-Apr-19 19:28N 14°28' W 060°53'0 0.0
2018-Apr-19 18:55N 14°28' W 060°53'0 0.0
2018-Apr-19 18:28N 14°28' W 060°53'0 0.0
2018-Apr-19 17:58N 14°28' W 060°53'0 0.0
2018-Apr-19 17:25N 14°28' W 060°53'0 0.0
2018-Apr-19 16:58N 14°28' W 060°53'0 0.0
2018-Apr-19 16:28N 14°28' W 060°53'0 0.0
2018-Apr-19 15:58N 14°28' W 060°53'0 0.0
2018-Apr-19 15:28N 14°28' W 060°53'0 0.0
2018-Apr-19 14:58N 14°28' W 060°53'0 0.0
2018-Apr-19 14:28N 14°28' W 060°53'0 0.0
2018-Apr-19 13:55N 14°28' W 060°53'0 0.0
2018-Apr-19 13:25N 14°28' W 060°53'0 0.0
2018-Apr-19 12:58N 14°28' W 060°53'0 0.0
2018-Apr-19 12:28N 14°28' W 060°53'0 0.0
2018-Apr-19 11:58N 14°28' W 060°53'0 0.0
2018-Apr-19 11:28N 14°28' W 060°53'0 0.0
2018-Apr-19 05:17N 14°28' W 060°53'0 0.0
2018-Apr-19 04:59N 14°28' W 060°53'0 0.0
2018-Apr-19 04:29N 14°28' W 060°53'0 0.0
2018-Apr-19 03:59N 14°28' W 060°53'0 0.0
2018-Apr-19 03:23N 14°28' W 060°53'0 0.0
2018-Apr-19 02:56N 14°28' W 060°53'0 0.0
2018-Apr-19 02:25N 14°28' W 060°53'0 0.0
2018-Apr-19 01:58N 14°28' W 060°53'0 0.0
2018-Apr-19 01:28N 14°28' W 060°53'0 0.0
2018-Apr-19 00:58N 14°28' W 060°53'0 0.0
2018-Apr-19 00:28N 14°28' W 060°53'0 0.0
2018-Apr-18 23:58N 14°28' W 060°53'0 0.0
2018-Apr-18 23:28N 14°28' W 060°53'0 0.0
2018-Apr-18 22:58N 14°28' W 060°53'0 0.0
2018-Apr-18 22:25N 14°28' W 060°53'0 0.0
2018-Apr-18 21:58N 14°28' W 060°53'0 0.0
2018-Apr-18 21:28N 14°28' W 060°53'0 0.0
2018-Apr-18 20:46N 14°28' W 060°53'0 0.0
2018-Apr-18 20:28N 14°28' W 060°53'0 0.0
2018-Apr-18 19:58N 14°28' W 060°53'0 0.0
2018-Apr-18 19:28N 14°28' W 060°53'0 0.0
2018-Apr-18 18:58N 14°28' W 060°53'0 0.0
2018-Apr-18 18:28N 14°28' W 060°53'0 0.0
2018-Apr-18 17:58N 14°28' W 060°53'0 0.0
2018-Apr-18 17:28N 14°28' W 060°53'0 0.0
2018-Apr-18 16:58N 14°28' W 060°53'0 0.0
2018-Apr-18 16:28N 14°28' W 060°53'0 0.0
2018-Apr-18 15:58N 14°28' W 060°53'0 0.0
2018-Apr-18 15:25N 14°28' W 060°53'0 0.0
2018-Apr-18 14:58N 14°28' W 060°53'0 0.0
2018-Apr-18 14:28N 14°28' W 060°53'0 0.0
2018-Apr-18 14:00N 14°28' W 060°53'0 0.0
2018-Apr-18 13:30N 14°28' W 060°53'0 0.0
2018-Apr-18 13:00N 14°28' W 060°53'0 0.0
2018-Apr-18 12:30N 14°28' W 060°53'0 0.0
2018-Apr-18 11:58N 14°28' W 060°53'0 0.0
2018-Apr-18 11:28N 14°28' W 060°53'0 0.0
2018-Apr-18 10:58N 14°28' W 060°53'0 0.0
2018-Apr-18 10:28N 14°28' W 060°53'0 0.0
2018-Apr-18 09:58N 14°28' W 060°53'0 0.0
2018-Apr-18 09:28N 14°28' W 060°53'0 0.0
2018-Apr-18 08:55N 14°28' W 060°53'0 0.0
2018-Apr-18 08:28N 14°28' W 060°53'0 0.0
2018-Apr-18 07:59N 14°28' W 060°53'0 0.0
2018-Apr-18 07:29N 14°28' W 060°53'0 0.0
2018-Apr-18 06:56N 14°28' W 060°53'0 0.0
2018-Apr-18 06:29N 14°28' W 060°53'0 0.0
2018-Apr-18 05:59N 14°28' W 060°53'0 0.0
2018-Apr-18 05:29N 14°28' W 060°53'0 0.0
2018-Apr-18 04:59N 14°28' W 060°53'0 0.0
2018-Apr-18 04:29N 14°28' W 060°53'0 0.0
2018-Apr-18 03:59N 14°28' W 060°53'0 0.0
2018-Apr-18 03:29N 14°28' W 060°53'0 0.0
2018-Apr-18 02:59N 14°28' W 060°53'0 0.0
2018-Apr-18 02:29N 14°28' W 060°53'0 0.0
2018-Apr-18 01:59N 14°28' W 060°53'0 0.0
2018-Apr-18 01:29N 14°28' W 060°53'0 0.0
2018-Apr-18 00:59N 14°28' W 060°53'0 0.0
2018-Apr-18 00:29N 14°28' W 060°53'0 0.0
2018-Apr-17 23:59N 14°28' W 060°53'0 0.0
2018-Apr-17 23:29N 14°28' W 060°53'0 0.0
2018-Apr-17 22:59N 14°28' W 060°53'0 0.0
2018-Apr-17 22:29N 14°28' W 060°53'0 0.0
2018-Apr-17 21:59N 14°28' W 060°53'0 0.0
2018-Apr-17 21:29N 14°28' W 060°53'0 0.0
2018-Apr-17 20:41N 14°28' W 060°53'0 0.0
2018-Apr-17 20:29N 14°28' W 060°53'0 0.0
2018-Apr-17 19:59N 14°28' W 060°53'0 0.0
2018-Apr-17 19:26N 14°28' W 060°53'0 0.0
2018-Apr-17 18:59N 14°28' W 060°53'0 0.0
2018-Apr-17 18:29N 14°28' W 060°53'0 0.0
2018-Apr-17 17:59N 14°28' W 060°53'0 0.0
2018-Apr-17 17:29N 14°28' W 060°53'0 0.0
2018-Apr-17 16:59N 14°28' W 060°53'0 0.0
2018-Apr-17 16:29N 14°28' W 060°53'0 0.0
2018-Apr-17 15:59N 14°28' W 060°53'0 0.0
2018-Apr-17 15:29N 14°28' W 060°53'0 0.0
2018-Apr-17 14:59N 14°28' W 060°53'0 0.0
2018-Apr-17 14:29N 14°28' W 060°53'0 0.0
2018-Apr-17 13:59N 14°28' W 060°53'0 0.0
2018-Apr-17 13:28N 14°28' W 060°53'0 0.0
2018-Apr-17 12:58N 14°28' W 060°53'0 0.0
2018-Apr-17 12:30N 14°28' W 060°53'0 0.0
2018-Apr-17 12:00N 14°28' W 060°53'0 0.0
2018-Apr-17 11:30N 14°28' W 060°53'0 0.0
2018-Apr-17 11:00N 14°28' W 060°53'0 0.0
2018-Apr-17 10:27N 14°28' W 060°53'0 0.0
2018-Apr-17 09:57N 14°28' W 060°53'0 0.0
2018-Apr-17 09:30N 14°28' W 060°53'0 0.0
2018-Apr-17 08:57N 14°28' W 060°53'0 0.0
2018-Apr-17 08:30N 14°28' W 060°53'0 0.0
2018-Apr-17 08:00N 14°28' W 060°53'0 0.0
2018-Apr-17 07:30N 14°28' W 060°53'0 0.0
2018-Apr-17 07:00N 14°28' W 060°53'0 0.0
2018-Apr-17 06:30N 14°28' W 060°53'0 0.0
2018-Apr-17 06:00N 14°28' W 060°53'0 0.0
2018-Apr-17 05:30N 14°28' W 060°53'0 0.0
2018-Apr-17 05:00N 14°28' W 060°53'0 0.0
2018-Apr-17 04:30N 14°28' W 060°53'0 0.0
2018-Apr-17 04:00N 14°28' W 060°53'0 0.0
2018-Apr-17 03:30N 14°28' W 060°53'0 0.0
2018-Apr-17 03:00N 14°28' W 060°53'0 0.0
2018-Apr-17 02:30N 14°28' W 060°53'0 0.0
2018-Apr-17 02:00N 14°28' W 060°53'0 0.0
2018-Apr-16 22:57N 14°28' W 060°53'0 0.0
2018-Apr-16 22:12N 14°28' W 060°53'0 0.1
2018-Apr-16 22:00N 14°28' W 060°53'0 0.0
2018-Apr-16 21:21N 14°28' W 060°53'0 0.1
2018-Apr-16 21:00N 14°28' W 060°52'0 0.0
2018-Apr-16 20:18N 14°28' W 060°53'0 0.0
2018-Apr-16 17:57N 14°28' W 060°53'0 0.0
2018-Apr-16 17:30N 14°28' W 060°53'0 0.0
2018-Apr-16 16:54N 14°28' W 060°53'0 0.0
2018-Apr-16 16:30N 14°28' W 060°53'0 0.0
2018-Apr-16 15:57N 14°28' W 060°53'0 0.0
2018-Apr-16 15:27N 14°28' W 060°53'0 0.0
2018-Apr-16 14:57N 14°28' W 060°53'0 0.0
2018-Apr-16 11:33N 14°28' W 060°53'0 0.0
2018-Apr-16 11:18N 14°28' W 060°53'0 0.0
2018-Apr-16 08:57N 14°28' W 060°53'0 0.0
2018-Apr-16 08:27N 14°28' W 060°53'0 0.0
2018-Apr-16 07:54N 14°28' W 060°53'0 0.0
2018-Apr-16 07:30N 14°28' W 060°53'0 0.0
2018-Apr-16 07:00N 14°28' W 060°53'0 0.0
2018-Apr-16 06:30N 14°28' W 060°53'0 0.0
2018-Apr-16 06:00N 14°28' W 060°53'0 0.0
2018-Apr-16 05:30N 14°28' W 060°53'0 0.0
2018-Apr-16 05:00N 14°28' W 060°53'0 0.0
2018-Apr-16 04:30N 14°28' W 060°53'0 0.0
2018-Apr-16 04:00N 14°28' W 060°53'0 0.0
2018-Apr-16 03:30N 14°28' W 060°53'0 0.0
2018-Apr-16 03:00N 14°28' W 060°53'0 0.0
2018-Apr-16 02:30N 14°28' W 060°53'0 0.0
2018-Apr-16 02:00N 14°28' W 060°53'0 0.0
2018-Apr-16 01:30N 14°28' W 060°53'0 0.0
2018-Apr-16 01:00N 14°28' W 060°53'0 0.0
2018-Apr-16 00:30N 14°28' W 060°53'0 0.0
2018-Apr-16 00:00N 14°28' W 060°53'0 0.0
2018-Apr-15 23:27N 14°28' W 060°53'0 0.0
2018-Apr-15 22:54N 14°28' W 060°53'0 0.0
2018-Apr-15 22:30N 14°28' W 060°53'0 0.0
2018-Apr-15 22:00N 14°28' W 060°53'0 0.0
2018-Apr-15 21:30N 14°28' W 060°53'0 0.0
2018-Apr-15 21:00N 14°28' W 060°53'0 0.0
2018-Apr-15 20:24N 14°28' W 060°53'0 0.0
2018-Apr-15 20:00N 14°28' W 060°53'0 0.0
2018-Apr-15 19:30N 14°28' W 060°53'0 0.0
2018-Apr-15 19:00N 14°28' W 060°53'0 0.0
2018-Apr-15 18:30N 14°28' W 060°53'0 0.0
2018-Apr-15 17:57N 14°28' W 060°53'0 0.0
2018-Apr-15 17:30N 14°28' W 060°53'0 0.0
2018-Apr-15 17:00N 14°28' W 060°53'0 0.0
2018-Apr-15 16:27N 14°28' W 060°53'0 0.0
2018-Apr-15 16:00N 14°28' W 060°53'0 0.0
2018-Apr-15 15:30N 14°28' W 060°53'0 0.0
2018-Apr-15 15:00N 14°28' W 060°53'0 0.0
2018-Apr-15 14:30N 14°28' W 060°53'0 0.0
2018-Apr-15 14:00N 14°28' W 060°53'0 0.0
2018-Apr-15 13:27N 14°28' W 060°53'0 0.0
2018-Apr-15 12:57N 14°28' W 060°53'0 0.0
2018-Apr-15 12:30N 14°28' W 060°53'0 0.0
2018-Apr-15 12:00N 14°28' W 060°53'0 0.0
2018-Apr-15 11:30N 14°28' W 060°53'0 0.0
2018-Apr-15 11:00N 14°28' W 060°53'0 0.0
2018-Apr-15 10:30N 14°28' W 060°53'0 0.0
2018-Apr-15 10:00N 14°28' W 060°53'0 0.0
2018-Apr-15 09:30N 14°28' W 060°53'0 0.0
2018-Apr-15 09:00N 14°28' W 060°53'0 0.0
2018-Apr-15 08:30N 14°28' W 060°53'0 0.0
2018-Apr-15 07:57N 14°28' W 060°53'0 0.0
2018-Apr-15 07:30N 14°28' W 060°53'0 0.0
2018-Apr-15 06:57N 14°28' W 060°53'0 0.0
2018-Apr-15 06:30N 14°28' W 060°53'0 0.0
2018-Apr-15 06:00N 14°28' W 060°53'0 0.0
2018-Apr-15 05:30N 14°28' W 060°53'0 0.0
2018-Apr-15 04:57N 14°28' W 060°53'0 0.0
2018-Apr-15 04:27N 14°28' W 060°53'0 0.0
2018-Apr-15 04:00N 14°28' W 060°53'0 0.0
2018-Apr-15 03:30N 14°28' W 060°53'0 0.0
2018-Apr-15 02:57N 14°28' W 060°53'0 0.0
2018-Apr-15 02:27N 14°28' W 060°53'0 0.0
2018-Apr-15 01:57N 14°28' W 060°53'0 0.0
2018-Apr-15 01:27N 14°28' W 060°53'0 0.0
2018-Apr-15 01:00N 14°28' W 060°53'0 0.0
2018-Apr-15 00:30N 14°28' W 060°53'0 0.0
2018-Apr-15 00:00N 14°28' W 060°53'0 0.0
2018-Apr-14 23:30N 14°28' W 060°53'0 0.0
2018-Apr-14 23:00N 14°28' W 060°53'0 0.0
2018-Apr-14 22:27N 14°28' W 060°53'0 0.0
2018-Apr-14 22:00N 14°28' W 060°53'0 0.0
2018-Apr-14 21:27N 14°28' W 060°53'0 0.0
2018-Apr-14 21:00N 14°28' W 060°53'0 0.0
2018-Apr-14 20:30N 14°28' W 060°53'0 0.0
2018-Apr-14 20:00N 14°28' W 060°53'0 0.0
2018-Apr-14 19:30N 14°28' W 060°53'0 0.0
2018-Apr-14 19:00N 14°28' W 060°53'0 0.0
2018-Apr-14 18:30N 14°28' W 060°53'0 0.0
2018-Apr-14 18:00N 14°28' W 060°53'0 0.0
2018-Apr-14 17:30N 14°28' W 060°53'0 0.0
2018-Apr-14 17:00N 14°28' W 060°53'0 0.0
2018-Apr-14 16:30N 14°28' W 060°53'0 0.0
2018-Apr-14 16:00N 14°28' W 060°53'0 0.0
2018-Apr-14 15:30N 14°28' W 060°53'0 0.0
2018-Apr-14 15:00N 14°28' W 060°53'0 0.2
2018-Apr-14 14:30N 14°28' W 060°53'0 0.1
2018-Apr-14 14:00N 14°28' W 060°53'1 2.9
2018-Apr-14 13:30N 14°27' W 060°54'1 1.7
2018-Apr-14 13:00N 14°26' W 060°53'0 0.0
2018-Apr-14 12:30N 14°26' W 060°53'0 0.0
2018-Apr-14 12:00N 14°26' W 060°53'0 0.0
2018-Apr-14 11:27N 14°26' W 060°53'0 0.0
2018-Apr-14 11:00N 14°26' W 060°53'0 0.0
2018-Apr-14 10:27N 14°26' W 060°53'0 0.0
2018-Apr-14 10:00N 14°26' W 060°53'0 0.0
2018-Apr-14 09:00N 14°26' W 060°53'0 0.0
2018-Apr-14 08:30N 14°26' W 060°53'0 0.0
2018-Apr-14 08:00N 14°26' W 060°53'0 0.0
2018-Apr-14 07:27N 14°26' W 060°53'0 0.0
2018-Apr-14 07:00N 14°26' W 060°53'0 0.0
2018-Apr-14 06:30N 14°26' W 060°53'0 0.0
2018-Apr-14 06:00N 14°26' W 060°53'0 0.0
2018-Apr-14 05:30N 14°26' W 060°53'0 0.0
2018-Apr-14 05:00N 14°26' W 060°53'0 0.0
2018-Apr-14 04:30N 14°26' W 060°53'0 0.0
2018-Apr-14 04:00N 14°26' W 060°53'0 0.0
2018-Apr-14 03:30N 14°26' W 060°53'0 0.0
2018-Apr-14 03:00N 14°26' W 060°53'0 0.0
2018-Apr-14 02:30N 14°26' W 060°53'0 0.0
2018-Apr-14 02:00N 14°26' W 060°53'0 0.0
2018-Apr-14 01:30N 14°26' W 060°53'0 0.0
2018-Apr-14 01:00N 14°26' W 060°53'0 0.0
2018-Apr-14 00:30N 14°26' W 060°53'0 0.0
2018-Apr-14 00:00N 14°26' W 060°53'0 0.0
2018-Apr-13 23:30N 14°26' W 060°53'0 0.0
2018-Apr-13 23:00N 14°26' W 060°53'0 0.0
2018-Apr-13 22:30N 14°26' W 060°53'0 0.0
2018-Apr-13 22:00N 14°26' W 060°53'0 0.0
2018-Apr-13 21:30N 14°26' W 060°53'0 0.0
2018-Apr-13 21:00N 14°26' W 060°53'0 0.0
2018-Apr-13 20:30N 14°26' W 060°53'0 0.0
2018-Apr-13 20:00N 14°26' W 060°53'0 0.0
2018-Apr-13 19:30N 14°26' W 060°53'0 0.0
2018-Apr-13 19:00N 14°26' W 060°53'0 0.0
2018-Apr-13 18:30N 14°26' W 060°53'0 0.0
2018-Apr-13 18:00N 14°26' W 060°53'0 0.0
2018-Apr-13 17:30N 14°26' W 060°53'0 0.0
2018-Apr-13 17:00N 14°26' W 060°53'0 0.0
2018-Apr-13 16:28N 14°26' W 060°53'0 0.0
2018-Apr-13 15:58N 14°26' W 060°53'0 0.0
2018-Apr-13 15:28N 14°26' W 060°53'0 0.0
2018-Apr-13 14:55N 14°26' W 060°53'1 3.5
2018-Apr-13 14:30N 14°26' W 060°55'2 5.1
2018-Apr-13 14:00N 14°27' W 060°57'  
Track history (hours):
 
Tides and Currents Weather Stations Pressure Air Temp Water Temp Dewpoint Dewpoint Depression Visibility Wind Speed Wind Dir Waves Ship Positions

Rose Des Vents

Last reported at 2018-Apr-23 13:36 UTC. Time now 2018-Apr-25 08:39 UTC.
Position N 14°22' W 060°56'.

Length 12 m.

Type: Sailing vessel. MMSI: 227487960.

Date/timePositionNaut miles runAvg speedWind from/ knotsBaromVisibWave heightAir tempDewpointWater temp
2018-Apr-23 13:36N 14°22' W 060°56'1 6.2
2018-Apr-23 13:30N 14°23' W 060°55'4 5.7
2018-Apr-23 12:52N 14°26' W 060°54'1 0.8
2018-Apr-23 12:04N 14°26' W 060°53'0 0.1
2018-Apr-23 11:58N 14°26' W 060°53'0 0.0
2018-Apr-23 10:40N 14°26' W 060°53'0 0.0
2018-Apr-23 10:25N 14°26' W 060°53'0 0.0
2018-Apr-23 09:52N 14°26' W 060°53'0 0.0
2018-Apr-23 09:28N 14°26' W 060°53'0 0.0
2018-Apr-23 08:58N 14°26' W 060°53'0 0.0
2018-Apr-23 08:25N 14°26' W 060°53'0 0.0
2018-Apr-23 07:58N 14°26' W 060°53'0 0.0
2018-Apr-23 07:19N 14°26' W 060°53'0 0.0
2018-Apr-23 06:58N 14°26' W 060°53'0 0.0
2018-Apr-23 06:28N 14°26' W 060°53'0 0.0
2018-Apr-23 05:31N 14°26' W 060°53'0 0.1
2018-Apr-23 05:25N 14°26' W 060°53'0 0.0
2018-Apr-23 04:58N 14°26' W 060°53'0 0.0
2018-Apr-23 04:25N 14°26' W 060°53'0 0.0
2018-Apr-23 03:49N 14°26' W 060°53'0 0.0
2018-Apr-23 03:16N 14°26' W 060°53'0 0.0
2018-Apr-23 02:55N 14°26' W 060°53'0 0.0
2018-Apr-23 02:25N 14°26' W 060°53'0 0.0
2018-Apr-23 01:55N 14°26' W 060°53'0 0.0
2018-Apr-23 01:28N 14°26' W 060°53'0 0.0
2018-Apr-23 00:58N 14°26' W 060°53'0 0.0
2018-Apr-23 00:25N 14°26' W 060°53'0 0.0
2018-Apr-22 23:52N 14°26' W 060°53'0 0.0
2018-Apr-22 23:28N 14°26' W 060°53'0 0.0
2018-Apr-22 22:55N 14°26' W 060°53'0 0.0
2018-Apr-22 22:28N 14°26' W 060°53'0 0.0
2018-Apr-22 21:58N 14°26' W 060°53'0 0.0
2018-Apr-22 21:25N 14°26' W 060°53'0 0.0
2018-Apr-22 20:49N 14°26' W 060°53'0 0.0
2018-Apr-22 20:28N 14°26' W 060°53'0 0.0
2018-Apr-22 19:58N 14°26' W 060°53'0 0.0
2018-Apr-22 19:29N 14°26' W 060°53'0 0.0
2018-Apr-22 18:59N 14°26' W 060°53'0 0.0
2018-Apr-22 18:29N 14°26' W 060°53'0 0.0
2018-Apr-22 17:56N 14°26' W 060°53'0 0.0
2018-Apr-22 17:29N 14°26' W 060°53'0 0.0
2018-Apr-22 16:47N 14°26' W 060°53'0 0.0
2018-Apr-22 16:26N 14°26' W 060°53'0 0.0
2018-Apr-22 15:59N 14°26' W 060°53'0 0.0
2018-Apr-22 15:30N 14°26' W 060°53'2 3.2
2018-Apr-22 14:54N 14°28' W 060°53'0 0.0
2018-Apr-22 14:27N 14°28' W 060°53'0 0.0
2018-Apr-22 14:00N 14°28' W 060°53'0 0.0
2018-Apr-22 13:30N 14°28' W 060°53'0 0.0
2018-Apr-22 13:00N 14°28' W 060°53'0 0.0
2018-Apr-22 12:27N 14°28' W 060°53'0 0.0
2018-Apr-22 11:57N 14°28' W 060°53'0 0.0
2018-Apr-22 11:19N 14°28' W 060°53'0 0.0
2018-Apr-22 11:00N 14°28' W 060°53'0 0.0
2018-Apr-22 10:25N 14°28' W 060°53'0 0.0
2018-Apr-22 10:00N 14°28' W 060°53'0 0.0
2018-Apr-22 09:30N 14°28' W 060°53'0 0.0
2018-Apr-22 09:00N 14°28' W 060°53'0 0.0
2018-Apr-22 08:27N 14°28' W 060°53'0 0.0
2018-Apr-22 08:00N 14°28' W 060°53'0 0.0
2018-Apr-22 07:27N 14°28' W 060°53'0 0.0
2018-Apr-22 07:00N 14°28' W 060°53'0 0.0
2018-Apr-22 06:30N 14°28' W 060°53'0 0.0
2018-Apr-22 06:00N 14°28' W 060°53'0 0.0
2018-Apr-22 05:30N 14°28' W 060°53'0 0.0
2018-Apr-22 05:00N 14°28' W 060°53'0 0.0
2018-Apr-22 04:30N 14°28' W 060°53'0 0.0
2018-Apr-22 04:00N 14°28' W 060°53'0 0.0
2018-Apr-22 03:30N 14°28' W 060°53'0 0.0
2018-Apr-22 03:00N 14°28' W 060°53'0 0.0
2018-Apr-22 02:30N 14°28' W 060°53'0 0.0
2018-Apr-22 02:00N 14°28' W 060°53'0 0.0
2018-Apr-22 01:30N 14°28' W 060°53'0 0.0
2018-Apr-22 01:00N 14°28' W 060°53'0 0.0
2018-Apr-22 00:30N 14°28' W 060°53'0 0.0
2018-Apr-22 00:00N 14°28' W 060°53'0 0.0
2018-Apr-21 23:29N 14°28' W 060°53'0 0.0
2018-Apr-21 22:59N 14°28' W 060°53'0 0.0
2018-Apr-21 22:29N 14°28' W 060°53'0 0.0
2018-Apr-21 21:59N 14°28' W 060°53'0 0.0
2018-Apr-21 21:29N 14°28' W 060°53'0 0.0
2018-Apr-21 20:59N 14°28' W 060°53'0 0.0
2018-Apr-21 20:29N 14°28' W 060°53'0 0.0
2018-Apr-21 19:59N 14°28' W 060°53'0 0.0
2018-Apr-21 19:29N 14°28' W 060°53'0 0.0
2018-Apr-21 18:59N 14°28' W 060°53'0 0.0
2018-Apr-21 18:29N 14°28' W 060°53'0 0.0
2018-Apr-21 17:59N 14°28' W 060°53'0 0.0
2018-Apr-21 17:29N 14°28' W 060°53'0 0.0
2018-Apr-21 16:59N 14°28' W 060°53'0 0.0
2018-Apr-21 16:29N 14°28' W 060°53'0 0.0
2018-Apr-21 15:59N 14°28' W 060°53'0 0.0
2018-Apr-21 15:29N 14°28' W 060°53'0 0.0
2018-Apr-21 14:59N 14°28' W 060°53'0 0.0
2018-Apr-21 14:29N 14°28' W 060°53'0 0.0
2018-Apr-21 13:59N 14°28' W 060°53'0 0.0
2018-Apr-21 13:29N 14°28' W 060°53'0 0.0
2018-Apr-21 12:56N 14°28' W 060°53'0 0.0
2018-Apr-21 12:29N 14°28' W 060°53'0 0.0
2018-Apr-21 11:59N 14°28' W 060°53'0 0.0
2018-Apr-21 11:29N 14°28' W 060°53'0 0.0
2018-Apr-21 10:59N 14°28' W 060°53'0 0.0
2018-Apr-21 10:29N 14°28' W 060°53'0 0.0
2018-Apr-21 09:59N 14°28' W 060°53'0 0.0
2018-Apr-21 09:29N 14°28' W 060°53'0 0.0
2018-Apr-21 08:59N 14°28' W 060°53'0 0.0
2018-Apr-21 08:29N 14°28' W 060°53'0 0.0
2018-Apr-21 07:59N 14°28' W 060°53'0 0.0
2018-Apr-21 07:29N 14°28' W 060°53'0 0.0
2018-Apr-21 06:59N 14°28' W 060°53'0 0.0
2018-Apr-21 06:29N 14°28' W 060°53'0 0.0
2018-Apr-21 05:29N 14°28' W 060°53'0 0.0
2018-Apr-21 04:59N 14°28' W 060°53'0 0.0
2018-Apr-21 04:29N 14°28' W 060°53'0 0.0
2018-Apr-21 03:59N 14°28' W 060°53'0 0.0
2018-Apr-21 03:29N 14°28' W 060°53'0 0.0
2018-Apr-21 02:59N 14°28' W 060°53'0 0.0
2018-Apr-21 02:29N 14°28' W 060°53'0 0.0
2018-Apr-21 01:59N 14°28' W 060°53'0 0.0
2018-Apr-21 01:29N 14°28' W 060°53'0 0.0
2018-Apr-21 00:59N 14°28' W 060°53'0 0.0
2018-Apr-21 00:29N 14°28' W 060°53'0 0.0
2018-Apr-20 23:59N 14°28' W 060°53'0 0.0
2018-Apr-20 23:29N 14°28' W 060°53'0 0.0
2018-Apr-20 22:59N 14°28' W 060°53'0 0.0
2018-Apr-20 22:29N 14°28' W 060°53'0 0.0
2018-Apr-20 21:59N 14°28' W 060°53'0 0.0
2018-Apr-20 21:29N 14°28' W 060°53'0 0.0
2018-Apr-20 20:59N 14°28' W 060°53'0 0.0
2018-Apr-20 20:29N 14°28' W 060°53'0 0.0
2018-Apr-20 19:59N 14°28' W 060°53'0 0.0
2018-Apr-20 19:29N 14°28' W 060°53'0 0.0
2018-Apr-20 18:59N 14°28' W 060°53'0 0.0
2018-Apr-20 18:29N 14°28' W 060°53'0 0.0
2018-Apr-20 17:59N 14°28' W 060°53'0 0.0
2018-Apr-20 17:29N 14°28' W 060°53'0 0.0
2018-Apr-20 16:59N 14°28' W 060°53'0 0.0
2018-Apr-20 16:29N 14°28' W 060°53'0 0.0
2018-Apr-20 15:59N 14°28' W 060°53'0 0.0
2018-Apr-20 15:29N 14°28' W 060°53'0 0.0
2018-Apr-20 14:59N 14°28' W 060°53'0 0.0
2018-Apr-20 14:29N 14°28' W 060°53'0 0.0
2018-Apr-20 13:59N 14°28' W 060°53'0 0.0
2018-Apr-20 13:29N 14°28' W 060°53'0 0.0
2018-Apr-20 12:59N 14°28' W 060°53'0 0.0
2018-Apr-20 12:29N 14°28' W 060°53'0 0.0
2018-Apr-20 11:59N 14°28' W 060°53'0 0.0
2018-Apr-20 11:28N 14°28' W 060°53'0 0.0
2018-Apr-20 10:55N 14°28' W 060°53'0 0.0
2018-Apr-20 10:28N 14°28' W 060°53'0 0.0
2018-Apr-20 09:58N 14°28' W 060°53'0 0.0
2018-Apr-20 09:28N 14°28' W 060°53'0 0.0
2018-Apr-20 08:58N 14°28' W 060°53'0 0.0
2018-Apr-20 08:25N 14°28' W 060°53'0 0.0
2018-Apr-20 07:58N 14°28' W 060°53'0 0.0
2018-Apr-20 07:28N 14°28' W 060°53'0 0.0
2018-Apr-20 06:58N 14°28' W 060°53'0 0.0
2018-Apr-20 06:28N 14°28' W 060°53'0 0.0
2018-Apr-20 05:28N 14°28' W 060°53'0 0.0
2018-Apr-20 04:58N 14°28' W 060°53'0 0.0
2018-Apr-20 04:28N 14°28' W 060°53'0 0.0
2018-Apr-20 03:58N 14°28' W 060°53'0 0.0
2018-Apr-20 03:28N 14°28' W 060°53'0 0.0
2018-Apr-20 02:58N 14°28' W 060°53'0 0.0
2018-Apr-20 02:28N 14°28' W 060°53'0 0.0
2018-Apr-20 01:58N 14°28' W 060°53'0 0.0
2018-Apr-20 01:28N 14°28' W 060°53'0 0.0
2018-Apr-20 00:58N 14°28' W 060°53'0 0.0
2018-Apr-20 00:28N 14°28' W 060°53'0 0.0
2018-Apr-19 23:52N 14°28' W 060°53'0 0.0
2018-Apr-19 23:10N 14°28' W 060°53'0 0.0
2018-Apr-19 22:58N 14°28' W 060°53'0 0.0
2018-Apr-19 22:28N 14°28' W 060°53'0 0.0
2018-Apr-19 21:58N 14°28' W 060°53'0 0.0
2018-Apr-19 21:28N 14°28' W 060°53'0 0.0
2018-Apr-19 20:58N 14°28' W 060°53'0 0.0
2018-Apr-19 20:28N 14°28' W 060°53'0 0.0
2018-Apr-19 19:58N 14°28' W 060°53'0 0.0
2018-Apr-19 19:28N 14°28' W 060°53'0 0.0
2018-Apr-19 18:55N 14°28' W 060°53'0 0.0
2018-Apr-19 18:28N 14°28' W 060°53'0 0.0
2018-Apr-19 17:58N 14°28' W 060°53'0 0.0
2018-Apr-19 17:25N 14°28' W 060°53'0 0.0
2018-Apr-19 16:58N 14°28' W 060°53'0 0.0
2018-Apr-19 16:28N 14°28' W 060°53'0 0.0
2018-Apr-19 15:58N 14°28' W 060°53'0 0.0
2018-Apr-19 15:28N 14°28' W 060°53'0 0.0
2018-Apr-19 14:58N 14°28' W 060°53'0 0.0
2018-Apr-19 14:28N 14°28' W 060°53'0 0.0
2018-Apr-19 13:55N 14°28' W 060°53'0 0.0
2018-Apr-19 13:25N 14°28' W 060°53'0 0.0
2018-Apr-19 12:58N 14°28' W 060°53'0 0.0
2018-Apr-19 12:28N 14°28' W 060°53'0 0.0
2018-Apr-19 11:58N 14°28' W 060°53'0 0.0
2018-Apr-19 11:28N 14°28' W 060°53'0 0.0
2018-Apr-19 05:17N 14°28' W 060°53'0 0.0
2018-Apr-19 04:59N 14°28' W 060°53'0 0.0
2018-Apr-19 04:29N 14°28' W 060°53'0 0.0
2018-Apr-19 03:59N 14°28' W 060°53'0 0.0
2018-Apr-19 03:23N 14°28' W 060°53'0 0.0
2018-Apr-19 02:56N 14°28' W 060°53'0 0.0
2018-Apr-19 02:25N 14°28' W 060°53'0 0.0
2018-Apr-19 01:58N 14°28' W 060°53'0 0.0
2018-Apr-19 01:28N 14°28' W 060°53'0 0.0
2018-Apr-19 00:58N 14°28' W 060°53'0 0.0
2018-Apr-19 00:28N 14°28' W 060°53'0 0.0
2018-Apr-18 23:58N 14°28' W 060°53'0 0.0
2018-Apr-18 23:28N 14°28' W 060°53'0 0.0
2018-Apr-18 22:58N 14°28' W 060°53'0 0.0
2018-Apr-18 22:25N 14°28' W 060°53'0 0.0
2018-Apr-18 21:58N 14°28' W 060°53'0 0.0
2018-Apr-18 21:28N 14°28' W 060°53'0 0.0
2018-Apr-18 20:46N 14°28' W 060°53'0 0.0
2018-Apr-18 20:28N 14°28' W 060°53'0 0.0
2018-Apr-18 19:58N 14°28' W 060°53'0 0.0
2018-Apr-18 19:28N 14°28' W 060°53'0 0.0
2018-Apr-18 18:58N 14°28' W 060°53'0 0.0
2018-Apr-18 18:28N 14°28' W 060°53'0 0.0
2018-Apr-18 17:58N 14°28' W 060°53'0 0.0
2018-Apr-18 17:28N 14°28' W 060°53'0 0.0
2018-Apr-18 16:58N 14°28' W 060°53'0 0.0
2018-Apr-18 16:28N 14°28' W 060°53'0 0.0
2018-Apr-18 15:58N 14°28' W 060°53'0 0.0
2018-Apr-18 15:25N 14°28' W 060°53'0 0.0
2018-Apr-18 14:58N 14°28' W 060°53'0 0.0
2018-Apr-18 14:28N 14°28' W 060°53'0 0.0
2018-Apr-18 14:00N 14°28' W 060°53'0 0.0
2018-Apr-18 13:30N 14°28' W 060°53'0 0.0
2018-Apr-18 13:00N 14°28' W 060°53'0 0.0
2018-Apr-18 12:30N 14°28' W 060°53'0 0.0
2018-Apr-18 11:58N 14°28' W 060°53'0 0.0
2018-Apr-18 11:28N 14°28' W 060°53'0 0.0
2018-Apr-18 10:58N 14°28' W 060°53'0 0.0
2018-Apr-18 10:28N 14°28' W 060°53'0 0.0
2018-Apr-18 09:58N 14°28' W 060°53'0 0.0
2018-Apr-18 09:28N 14°28' W 060°53'0 0.0
2018-Apr-18 08:55N 14°28' W 060°53'0 0.0
2018-Apr-18 08:28N 14°28' W 060°53'0 0.0
2018-Apr-18 07:59N 14°28' W 060°53'0 0.0
2018-Apr-18 07:29N 14°28' W 060°53'0 0.0
2018-Apr-18 06:56N 14°28' W 060°53'0 0.0
2018-Apr-18 06:29N 14°28' W 060°53'0 0.0
2018-Apr-18 05:59N 14°28' W 060°53'0 0.0
2018-Apr-18 05:29N 14°28' W 060°53'0 0.0
2018-Apr-18 04:59N 14°28' W 060°53'0 0.0
2018-Apr-18 04:29N 14°28' W 060°53'0 0.0
2018-Apr-18 03:59N 14°28' W 060°53'0 0.0
2018-Apr-18 03:29N 14°28' W 060°53'0 0.0
2018-Apr-18 02:59N 14°28' W 060°53'0 0.0
2018-Apr-18 02:29N 14°28' W 060°53'0 0.0
2018-Apr-18 01:59N 14°28' W 060°53'0 0.0
2018-Apr-18 01:29N 14°28' W 060°53'0 0.0
2018-Apr-18 00:59N 14°28' W 060°53'0 0.0
2018-Apr-18 00:29N 14°28' W 060°53'0 0.0
2018-Apr-17 23:59N 14°28' W 060°53'0 0.0
2018-Apr-17 23:29N 14°28' W 060°53'0 0.0
2018-Apr-17 22:59N 14°28' W 060°53'0 0.0
2018-Apr-17 22:29N 14°28' W 060°53'0 0.0
2018-Apr-17 21:59N 14°28' W 060°53'0 0.0
2018-Apr-17 21:29N 14°28' W 060°53'0 0.0
2018-Apr-17 20:41N 14°28' W 060°53'0 0.0
2018-Apr-17 20:29N 14°28' W 060°53'0 0.0
2018-Apr-17 19:59N 14°28' W 060°53'0 0.0
2018-Apr-17 19:26N 14°28' W 060°53'0 0.0
2018-Apr-17 18:59N 14°28' W 060°53'0 0.0
2018-Apr-17 18:29N 14°28' W 060°53'0 0.0
2018-Apr-17 17:59N 14°28' W 060°53'0 0.0
2018-Apr-17 17:29N 14°28' W 060°53'0 0.0
2018-Apr-17 16:59N 14°28' W 060°53'0 0.0
2018-Apr-17 16:29N 14°28' W 060°53'0 0.0
2018-Apr-17 15:59N 14°28' W 060°53'0 0.0
2018-Apr-17 15:29N 14°28' W 060°53'0 0.0
2018-Apr-17 14:59N 14°28' W 060°53'0 0.0
2018-Apr-17 14:29N 14°28' W 060°53'0 0.0
2018-Apr-17 13:59N 14°28' W 060°53'0 0.0
2018-Apr-17 13:28N 14°28' W 060°53'0 0.0
2018-Apr-17 12:58N 14°28' W 060°53'0 0.0
2018-Apr-17 12:30N 14°28' W 060°53'0 0.0
2018-Apr-17 12:00N 14°28' W 060°53'0 0.0
2018-Apr-17 11:30N 14°28' W 060°53'0 0.0
2018-Apr-17 11:00N 14°28' W 060°53'0 0.0
2018-Apr-17 10:27N 14°28' W 060°53'0 0.0
2018-Apr-17 09:57N 14°28' W 060°53'0 0.0
2018-Apr-17 09:30N 14°28' W 060°53'0 0.0
2018-Apr-17 08:57N 14°28' W 060°53'0 0.0
2018-Apr-17 08:30N 14°28' W 060°53'0 0.0
2018-Apr-17 08:00N 14°28' W 060°53'0 0.0
2018-Apr-17 07:30N 14°28' W 060°53'0 0.0
2018-Apr-17 07:00N 14°28' W 060°53'0 0.0
2018-Apr-17 06:30N 14°28' W 060°53'0 0.0
2018-Apr-17 06:00N 14°28' W 060°53'0 0.0
2018-Apr-17 05:30N 14°28' W 060°53'0 0.0
2018-Apr-17 05:00N 14°28' W 060°53'0 0.0
2018-Apr-17 04:30N 14°28' W 060°53'0 0.0
2018-Apr-17 04:00N 14°28' W 060°53'0 0.0
2018-Apr-17 03:30N 14°28' W 060°53'0 0.0
2018-Apr-17 03:00N 14°28' W 060°53'0 0.0
2018-Apr-17 02:30N 14°28' W 060°53'0 0.0
2018-Apr-17 02:00N 14°28' W 060°53'0 0.0
2018-Apr-16 22:57N 14°28' W 060°53'0 0.0
2018-Apr-16 22:12N 14°28' W 060°53'0 0.1
2018-Apr-16 22:00N 14°28' W 060°53'0 0.0
2018-Apr-16 21:21N 14°28' W 060°53'0 0.1
2018-Apr-16 21:00N 14°28' W 060°52'0 0.0
2018-Apr-16 20:18N 14°28' W 060°53'0 0.0
2018-Apr-16 17:57N 14°28' W 060°53'0 0.0
2018-Apr-16 17:30N 14°28' W 060°53'0 0.0
2018-Apr-16 16:54N 14°28' W 060°53'0 0.0
2018-Apr-16 16:30N 14°28' W 060°53'0 0.0
2018-Apr-16 15:57N 14°28' W 060°53'0 0.0
2018-Apr-16 15:27N 14°28' W 060°53'0 0.0
2018-Apr-16 14:57N 14°28' W 060°53'0 0.0
2018-Apr-16 11:33N 14°28' W 060°53'0 0.0
2018-Apr-16 11:18N 14°28' W 060°53'0 0.0
2018-Apr-16 08:57N 14°28' W 060°53'0 0.0
2018-Apr-16 08:27N 14°28' W 060°53'0 0.0
2018-Apr-16 07:54N 14°28' W 060°53'0 0.0
2018-Apr-16 07:30N 14°28' W 060°53'0 0.0
2018-Apr-16 07:00N 14°28' W 060°53'0 0.0
2018-Apr-16 06:30N 14°28' W 060°53'0 0.0
2018-Apr-16 06:00N 14°28' W 060°53'0 0.0
2018-Apr-16 05:30N 14°28' W 060°53'0 0.0
2018-Apr-16 05:00N 14°28' W 060°53'0 0.0
2018-Apr-16 04:30N 14°28' W 060°53'0 0.0
2018-Apr-16 04:00N 14°28' W 060°53'0 0.0
2018-Apr-16 03:30N 14°28' W 060°53'0 0.0
2018-Apr-16 03:00N 14°28' W 060°53'0 0.0
2018-Apr-16 02:30N 14°28' W 060°53'0 0.0
2018-Apr-16 02:00N 14°28' W 060°53'0 0.0
2018-Apr-16 01:30N 14°28' W 060°53'0 0.0
2018-Apr-16 01:00N 14°28' W 060°53'0 0.0
2018-Apr-16 00:30N 14°28' W 060°53'0 0.0
2018-Apr-16 00:00N 14°28' W 060°53'0 0.0
2018-Apr-15 23:27N 14°28' W 060°53'0 0.0
2018-Apr-15 22:54N 14°28' W 060°53'0 0.0
2018-Apr-15 22:30N 14°28' W 060°53'0 0.0
2018-Apr-15 22:00N 14°28' W 060°53'0 0.0
2018-Apr-15 21:30N 14°28' W 060°53'0 0.0
2018-Apr-15 21:00N 14°28' W 060°53'0 0.0
2018-Apr-15 20:24N 14°28' W 060°53'0 0.0
2018-Apr-15 20:00N 14°28' W 060°53'0 0.0
2018-Apr-15 19:30N 14°28' W 060°53'0 0.0
2018-Apr-15 19:00N 14°28' W 060°53'0 0.0
2018-Apr-15 18:30N 14°28' W 060°53'0 0.0
2018-Apr-15 17:57N 14°28' W 060°53'0 0.0
2018-Apr-15 17:30N 14°28' W 060°53'0 0.0
2018-Apr-15 17:00N 14°28' W 060°53'0 0.0
2018-Apr-15 16:27N 14°28' W 060°53'0 0.0
2018-Apr-15 16:00N 14°28' W 060°53'0 0.0
2018-Apr-15 15:30N 14°28' W 060°53'0 0.0
2018-Apr-15 15:00N 14°28' W 060°53'0 0.0
2018-Apr-15 14:30N 14°28' W 060°53'0 0.0
2018-Apr-15 14:00N 14°28' W 060°53'0 0.0
2018-Apr-15 13:27N 14°28' W 060°53'0 0.0
2018-Apr-15 12:57N 14°28' W 060°53'0 0.0
2018-Apr-15 12:30N 14°28' W 060°53'0 0.0
2018-Apr-15 12:00N 14°28' W 060°53'0 0.0
2018-Apr-15 11:30N 14°28' W 060°53'0 0.0
2018-Apr-15 11:00N 14°28' W 060°53'0 0.0
2018-Apr-15 10:30N 14°28' W 060°53'0 0.0
2018-Apr-15 10:00N 14°28' W 060°53'0 0.0
2018-Apr-15 09:30N 14°28' W 060°53'0 0.0
2018-Apr-15 09:00N 14°28' W 060°53'0 0.0
2018-Apr-15 08:30N 14°28' W 060°53'0 0.0
2018-Apr-15 07:57N 14°28' W 060°53'0 0.0
2018-Apr-15 07:30N 14°28' W 060°53'0 0.0
2018-Apr-15 06:57N 14°28' W 060°53'0 0.0
2018-Apr-15 06:30N 14°28' W 060°53'0 0.0
2018-Apr-15 06:00N 14°28' W 060°53'0 0.0
2018-Apr-15 05:30N 14°28' W 060°53'0 0.0
2018-Apr-15 04:57N 14°28' W 060°53'0 0.0
2018-Apr-15 04:27N 14°28' W 060°53'0 0.0
2018-Apr-15 04:00N 14°28' W 060°53'0 0.0
2018-Apr-15 03:30N 14°28' W 060°53'0 0.0
2018-Apr-15 02:57N 14°28' W 060°53'0 0.0
2018-Apr-15 02:27N 14°28' W 060°53'0 0.0
2018-Apr-15 01:57N 14°28' W 060°53'0 0.0
2018-Apr-15 01:27N 14°28' W 060°53'0 0.0
2018-Apr-15 01:00N 14°28' W 060°53'0 0.0
2018-Apr-15 00:30N 14°28' W 060°53'0 0.0
2018-Apr-15 00:00N 14°28' W 060°53'0 0.0
2018-Apr-14 23:30N 14°28' W 060°53'0 0.0
2018-Apr-14 23:00N 14°28' W 060°53'0 0.0
2018-Apr-14 22:27N 14°28' W 060°53'0 0.0
2018-Apr-14 22:00N 14°28' W 060°53'0 0.0
2018-Apr-14 21:27N 14°28' W 060°53'0 0.0
2018-Apr-14 21:00N 14°28' W 060°53'0 0.0
2018-Apr-14 20:30N 14°28' W 060°53'0 0.0
2018-Apr-14 20:00N 14°28' W 060°53'0 0.0
2018-Apr-14 19:30N 14°28' W 060°53'0 0.0
2018-Apr-14 19:00N 14°28' W 060°53'0 0.0
2018-Apr-14 18:30N 14°28' W 060°53'0 0.0
2018-Apr-14 18:00N 14°28' W 060°53'0 0.0
2018-Apr-14 17:30N 14°28' W 060°53'0 0.0
2018-Apr-14 17:00N 14°28' W 060°53'0 0.0
2018-Apr-14 16:30N 14°28' W 060°53'0 0.0
2018-Apr-14 16:00N 14°28' W 060°53'0 0.0
2018-Apr-14 15:30N 14°28' W 060°53'0 0.0
2018-Apr-14 15:00N 14°28' W 060°53'0 0.2
2018-Apr-14 14:30N 14°28' W 060°53'0 0.1
2018-Apr-14 14:00N 14°28' W 060°53'1 2.9
2018-Apr-14 13:30N 14°27' W 060°54'1 1.7
2018-Apr-14 13:00N 14°26' W 060°53'0 0.0
2018-Apr-14 12:30N 14°26' W 060°53'0 0.0
2018-Apr-14 12:00N 14°26' W 060°53'0 0.0
2018-Apr-14 11:27N 14°26' W 060°53'0 0.0
2018-Apr-14 11:00N 14°26' W 060°53'0 0.0
2018-Apr-14 10:27N 14°26' W 060°53'0 0.0
2018-Apr-14 10:00N 14°26' W 060°53'0 0.0
2018-Apr-14 09:00N 14°26' W 060°53'0 0.0
2018-Apr-14 08:30N 14°26' W 060°53'0 0.0
2018-Apr-14 08:00N 14°26' W 060°53'0 0.0
2018-Apr-14 07:27N 14°26' W 060°53'0 0.0
2018-Apr-14 07:00N 14°26' W 060°53'0 0.0
2018-Apr-14 06:30N 14°26' W 060°53'0 0.0
2018-Apr-14 06:00N 14°26' W 060°53'0 0.0
2018-Apr-14 05:30N 14°26' W 060°53'0 0.0
2018-Apr-14 05:00N 14°26' W 060°53'0 0.0
2018-Apr-14 04:30N 14°26' W 060°53'0 0.0
2018-Apr-14 04:00N 14°26' W 060°53'0 0.0
2018-Apr-14 03:30N 14°26' W 060°53'0 0.0
2018-Apr-14 03:00N 14°26' W 060°53'0 0.0
2018-Apr-14 02:30N 14°26' W 060°53'0 0.0
2018-Apr-14 02:00N 14°26' W 060°53'0 0.0
2018-Apr-14 01:30N 14°26' W 060°53'0 0.0
2018-Apr-14 01:00N 14°26' W 060°53'0 0.0
2018-Apr-14 00:30N 14°26' W 060°53'0 0.0
2018-Apr-14 00:00N 14°26' W 060°53'0 0.0
2018-Apr-13 23:30N 14°26' W 060°53'0 0.0
2018-Apr-13 23:00N 14°26' W 060°53'0 0.0
2018-Apr-13 22:30N 14°26' W 060°53'0 0.0
2018-Apr-13 22:00N 14°26' W 060°53'0 0.0
2018-Apr-13 21:30N 14°26' W 060°53'0 0.0
2018-Apr-13 21:00N 14°26' W 060°53'0 0.0
2018-Apr-13 20:30N 14°26' W 060°53'0 0.0
2018-Apr-13 20:00N 14°26' W 060°53'0 0.0
2018-Apr-13 19:30N 14°26' W 060°53'0 0.0
2018-Apr-13 19:00N 14°26' W 060°53'0 0.0
2018-Apr-13 18:30N 14°26' W 060°53'0 0.0
2018-Apr-13 18:00N 14°26' W 060°53'0 0.0
2018-Apr-13 17:30N 14°26' W 060°53'0 0.0
2018-Apr-13 17:00N 14°26' W 060°53'0 0.0
2018-Apr-13 16:28N 14°26' W 060°53'0 0.0
2018-Apr-13 15:58N 14°26' W 060°53'0 0.0
2018-Apr-13 15:28N 14°26' W 060°53'0 0.0
2018-Apr-13 14:55N 14°26' W 060°53'1 3.5
2018-Apr-13 14:30N 14°26' W 060°55'2 5.1
2018-Apr-13 14:00N 14°27' W 060°57'  

Dump ship's entire track history